Time;durP1;ratioP1;P1;durP2;ratioP2;P2;SDS_P1;SDS_P2;PMS_P1;PMS_P2;Temp;Humidity;BMP_temperature;BMP_pressure;BME280_temperature;BME280_humidity;BME280_pressure;Samples;Min_cycle;Max_cycle;Signal;HPM_P1;HPM_P2
2023/10/04 00:01:14;;;;;;;12.50;11.80;;;12.90;58.50;;;;;;4878687;29;20480;-44
2023/10/04 00:03:40;;;;;;;11.93;11.23;;;12.90;80.80;;;;;;4877582;29;20515;-43
2023/10/04 00:06:05;;;;;;;12.00;11.40;;;12.90;83.50;;;;;;4878749;29;20515;-42
2023/10/04 00:08:31;;;;;;;11.67;11.17;;;12.90;69.40;;;;;;4877480;29;20199;-45
2023/10/04 00:10:57;;;;;;;12.20;11.50;;;12.90;57.00;;;;;;4877107;29;20215;-41
2023/10/04 00:13:22;;;;;;;12.20;11.60;;;12.80;65.10;;;;;;4876152;29;20249;-43
2023/10/04 00:15:48;;;;;;;11.80;11.20;;;12.90;65.60;;;;;;4882783;29;20196;-44
2023/10/04 00:18:15;;;;;;;12.10;11.40;;;12.80;74.80;;;;;;4875882;29;20192;-42
2023/10/04 00:20:40;;;;;;;11.93;11.33;;;12.80;80.40;;;;;;4877251;29;20200;-41
2023/10/04 00:23:06;;;;;;;11.90;11.40;;;12.70;86.50;;;;;;4877739;29;20927;-41
2023/10/04 00:25:35;;;;;;;11.67;11.07;;;12.70;92.60;;;;;;4882417;29;20428;-40
2023/10/04 00:28:02;;;;;;;11.93;11.43;;;12.70;94.20;;;;;;4875965;29;20199;-42
2023/10/04 00:30:29;;;;;;;11.80;11.20;;;12.70;92.70;;;;;;4879766;29;20506;-40
2023/10/04 00:32:57;;;;;;;12.40;11.60;;;12.70;93.90;;;;;;4879066;29;20807;-41
2023/10/04 00:35:25;;;;;;;12.20;11.60;;;12.70;99.40;;;;;;4879428;29;20420;-41
2023/10/04 00:38:00;;;;;;;12.23;11.63;;;12.60;93.10;;;;;;4877167;29;20452;-43
2023/10/04 00:40:27;;;;;;;12.50;11.80;;;12.60;93.90;;;;;;4877976;29;20476;-41
2023/10/04 00:42:56;;;;;;;12.10;11.40;;;12.60;91.60;;;;;;4876970;29;20439;-42
2023/10/04 00:45:22;;;;;;;11.70;11.20;;;12.60;99.10;;;;;;4878502;29;20432;-44
2023/10/04 00:47:51;;;;;;;12.00;11.40;;;12.50;99.90;;;;;;4877152;29;20468;-42
2023/10/04 00:50:27;;;;;;;12.30;11.60;;;12.50;99.90;;;;;;4874815;29;20931;-42
2023/10/04 00:53:00;;;;;;;11.90;11.30;;;12.50;99.90;;;;;;4865278;29;20420;-41
2023/10/04 00:55:27;;;;;;;11.90;11.30;;;12.40;99.90;;;;;;4884285;29;20439;-41
2023/10/04 00:57:54;;;;;;;11.90;11.30;;;12.30;99.90;;;;;;4877003;29;20512;-43
2023/10/04 01:00:21;;;;;;;11.97;11.30;;;12.30;99.90;;;;;;4874993;29;20444;-41
2023/10/04 01:02:48;;;;;;;11.83;11.13;;;12.30;99.90;;;;;;4877461;29;20911;-40
2023/10/04 01:05:15;;;;;;;11.40;10.90;;;12.30;99.90;;;;;;4875408;29;20513;-43
2023/10/04 01:07:42;;;;;;;12.23;11.50;;;12.30;99.90;;;;;;4876360;29;20448;-42
2023/10/04 01:10:14;;;;;;;11.90;11.40;;;12.30;99.90;;;;;;4876504;29;20444;-41
2023/10/04 01:12:42;;;;;;;12.50;11.70;;;12.30;99.90;;;;;;4885164;29;20464;-44
2023/10/04 01:15:53;;;;;;;11.80;11.13;;;12.30;99.90;;;;;;4876894;29;20436;-44
2023/10/04 01:17:58;;;;;;;11.33;10.83;;;12.30;99.90;;;;;;4885868;29;20460;-46
2023/10/04 01:20:28;;;;;;;12.90;12.00;;;12.20;99.90;;;;;;4873904;29;20444;-41
2023/10/04 01:23:05;;;;;;;12.50;11.80;;;12.20;99.90;;;;;;4885422;29;20523;-41
2023/10/04 01:25:36;;;;;;;11.90;11.30;;;12.20;99.90;;;;;;4876494;29;20491;-41
2023/10/04 01:28:12;;;;;;;12.20;11.40;;;12.20;99.90;;;;;;4886912;29;21202;-41
2023/10/04 01:30:39;;;;;;;12.50;11.77;;;12.20;99.90;;;;;;4875320;29;20471;-41
2023/10/04 01:33:07;;;;;;;12.63;11.93;;;12.20;99.90;;;;;;4874731;29;20451;-42
2023/10/04 01:35:33;;;;;;;12.37;11.77;;;12.20;98.00;;;;;;4875760;29;20535;-40
2023/10/04 01:37:59;;;;;;;12.30;11.60;;;12.20;97.90;;;;;;4885395;29;20432;-43
2023/10/04 01:40:32;;;;;;;12.70;12.00;;;12.20;96.70;;;;;;4875414;29;20563;-41
2023/10/04 01:42:58;;;;;;;12.60;11.80;;;12.20;97.40;;;;;;4877648;29;21269;-40
2023/10/04 01:45:23;;;;;;;12.63;11.93;;;12.10;99.70;;;;;;4876361;29;20875;-44
2023/10/04 01:47:50;;;;;;;12.90;12.10;;;12.10;95.30;;;;;;4888068;29;20443;-43
2023/10/04 01:50:16;;;;;;;12.67;11.90;;;12.10;99.90;;;;;;4877628;29;20190;-42
2023/10/04 01:52:45;;;;;;;12.87;12.07;;;12.10;95.50;;;;;;4887142;29;20498;-42
2023/10/04 01:55:12;;;;;;;12.50;11.70;;;12.00;96.60;;;;;;4883652;29;20702;-43
2023/10/04 01:57:41;;;;;;;12.87;12.17;;;12.00;99.10;;;;;;4889271;29;20528;-44
2023/10/04 02:00:10;;;;;;;12.60;12.00;;;12.00;97.50;;;;;;4874743;29;20444;-41
2023/10/04 02:02:40;;;;;;;12.20;11.53;;;12.00;93.40;;;;;;4878026;29;21019;-42
2023/10/04 02:05:09;;;;;;;12.80;12.10;;;12.10;94.70;;;;;;4875830;29;20480;-45
2023/10/04 02:07:38;;;;;;;12.80;12.10;;;12.00;91.70;;;;;;4873561;29;20487;-50
2023/10/04 02:10:18;;;;;;;12.83;12.13;;;12.10;89.30;;;;;;4879563;29;20445;-47
2023/10/04 02:12:43;;;;;;;13.30;12.50;;;12.00;80.60;;;;;;4883312;29;20537;-49
2023/10/04 02:15:15;;;;;;;12.90;12.20;;;12.10;73.60;;;;;;4877591;29;20428;-47
2023/10/04 02:17:44;;;;;;;13.03;12.37;;;12.10;58.30;;;;;;4877490;29;20243;-52
2023/10/04 02:20:28;;;;;;;12.30;11.63;;;12.20;45.00;;;;;;4874666;29;20488;-48
2023/10/04 02:22:57;;;;;;;12.77;12.07;;;12.30;42.30;;;;;;4876149;29;20424;-48
2023/10/04 02:25:24;;;;;;;12.53;11.73;;;12.20;55.70;;;;;;4875394;29;20429;-47
2023/10/04 02:27:55;;;;;;;13.10;12.37;;;12.20;46.10;;;;;;4877182;29;20447;-45
2023/10/04 02:30:23;;;;;;;13.23;12.33;;;12.20;44.80;;;;;;4874892;29;20472;-47
2023/10/04 02:32:50;;;;;;;12.13;11.53;;;12.20;43.70;;;;;;4876682;29;20508;-48
2023/10/04 02:35:27;;;;;;;13.13;12.30;;;12.10;45.80;;;;;;4866387;29;21122;-49
2023/10/04 02:37:58;;;;;;;13.07;12.37;;;12.10;55.20;;;;;;4869960;29;20412;-45
2023/10/04 02:40:27;;;;;;;13.27;12.40;;;12.10;48.30;;;;;;4879021;29;20515;-47
2023/10/04 02:42:57;;;;;;;12.40;11.50;;;12.10;54.50;;;;;;4872159;29;20465;-48
2023/10/04 02:45:24;;;;;;;12.50;11.90;;;12.10;58.80;;;;;;4875342;29;20413;-48
2023/10/04 02:47:52;;;;;;;12.30;11.70;;;12.20;51.00;;;;;;4879912;29;20463;-47
2023/10/04 02:50:20;;;;;;;12.13;11.53;;;12.30;47.10;;;;;;4877034;29;20475;-46
2023/10/04 02:52:46;;;;;;;12.83;12.03;;;12.40;23.80;;;;;;4878983;29;20419;-46
2023/10/04 02:55:17;;;;;;;12.77;12.13;;;12.40;22.50;;;;;;4876594;29;20443;-45
2023/10/04 02:57:49;;;;;;;13.00;12.30;;;12.40;26.40;;;;;;4879286;29;20423;-47
2023/10/04 03:00:17;;;;;;;13.10;12.30;;;12.50;15.80;;;;;;4882349;29;20772;-47
2023/10/04 03:02:44;;;;;;;12.50;11.83;;;12.50;4.60;;;;;;4864602;29;20434;-49
2023/10/04 03:05:12;;;;;;;12.53;11.73;;;12.60;1.00;;;;;;4888492;29;20440;-44
2023/10/04 03:07:38;;;;;;;12.30;11.60;;;12.60;1.00;;;;;;4880023;29;20404;-44
2023/10/04 03:10:05;;;;;;;12.80;12.10;;;12.70;1.00;;;;;;4897857;29;20411;-48
2023/10/04 03:12:31;;;;;;;12.97;12.17;;;12.70;1.00;;;;;;4891876;29;20510;-49
2023/10/04 03:14:56;;;;;;;12.50;11.80;;;12.70;1.00;;;;;;4881853;29;20464;-49
2023/10/04 03:17:22;;;;;;;12.47;11.57;;;12.80;1.00;;;;;;4859232;29;20197;-45
2023/10/04 03:19:48;;;;;;;12.43;11.73;;;12.70;1.00;;;;;;4881213;29;20199;-45
2023/10/04 03:22:19;;;;;;;13.00;12.20;;;12.70;1.00;;;;;;4876582;29;20192;-48
2023/10/04 03:24:45;;;;;;;13.10;12.10;;;12.70;1.00;;;;;;4893593;29;20186;-51
2023/10/04 03:27:12;;;;;;;12.73;11.93;;;12.70;1.00;;;;;;4887070;29;20479;-51
2023/10/04 03:29:39;;;;;;;12.03;11.43;;;12.60;1.00;;;;;;4879455;29;20523;-47
2023/10/04 03:32:05;;;;;;;12.83;11.97;;;12.50;1.00;;;;;;4877738;29;20455;-48
2023/10/04 03:34:30;;;;;;;12.00;11.40;;;12.50;1.00;;;;;;4886862;29;20476;-44
2023/10/04 03:37:07;;;;;;;12.03;11.43;;;12.40;1.00;;;;;;4878670;29;20750;-48
2023/10/04 03:39:33;;;;;;;12.53;11.77;;;12.30;1.00;;;;;;4888648;29;20618;-46
2023/10/04 03:42:00;;;;;;;12.50;11.80;;;12.20;1.00;;;;;;4882494;29;20490;-50
2023/10/04 03:44:26;;;;;;;11.80;11.20;;;12.20;1.00;;;;;;4888575;29;20412;-50
2023/10/04 03:46:53;;;;;;;12.50;11.77;;;12.20;1.00;;;;;;4897317;29;20433;-51
2023/10/04 03:49:21;;;;;;;12.50;11.80;;;12.30;1.00;;;;;;4897189;29;20203;-47
2023/10/04 03:51:50;;;;;;;12.80;12.10;;;12.30;1.00;;;;;;4878712;29;20880;-47
2023/10/04 03:54:18;;;;;;;12.10;11.40;;;12.30;1.00;;;;;;4885447;29;20435;-49
2023/10/04 03:56:44;;;;;;;12.40;11.80;;;12.30;1.00;;;;;;4888740;29;20963;-44
2023/10/04 03:59:10;;;;;;;11.83;11.20;;;12.30;1.00;;;;;;4878494;29;20452;-45
2023/10/04 04:01:37;;;;;;;11.70;10.90;;;12.20;1.00;;;;;;4878178;29;20187;-41
2023/10/04 04:04:04;;;;;;;12.47;11.67;;;12.20;1.00;;;;;;4880522;29;20447;-47
2023/10/04 04:06:30;;;;;;;12.37;11.67;;;12.20;1.00;;;;;;4889086;29;20564;-49
2023/10/04 04:08:58;;;;;;;11.77;11.10;;;12.20;1.00;;;;;;4895998;29;20937;-49
2023/10/04 04:11:24;;;;;;;12.20;11.60;;;12.30;1.00;;;;;;4896904;29;20490;-46
2023/10/04 04:13:49;;;;;;;12.20;11.60;;;12.20;1.00;;;;;;4893144;29;20532;-47
2023/10/04 04:16:17;;;;;;;12.47;11.80;;;12.10;1.00;;;;;;4884518;29;21292;-48
2023/10/04 04:18:44;;;;;;;11.97;11.37;;;12.10;1.00;;;;;;4872796;29;20195;-51
2023/10/04 04:21:10;;;;;;;12.03;11.43;;;12.00;8.10;;;;;;4874984;29;21168;-49
2023/10/04 04:23:36;;;;;;;12.60;11.80;;;11.90;19.60;;;;;;4874861;29;21121;-44
2023/10/04 04:26:05;;;;;;;11.47;10.93;;;11.90;13.60;;;;;;4868391;29;20537;-39
2023/10/04 04:28:35;;;;;;;11.97;11.27;;;11.90;9.90;;;;;;4867421;29;20498;-40
2023/10/04 04:31:02;;;;;;;11.67;11.10;;;12.00;2.50;;;;;;4868869;29;20440;-41
2023/10/04 04:33:29;;;;;;;11.90;11.30;;;11.90;3.30;;;;;;4862716;29;20440;-40
2023/10/04 04:36:00;;;;;;;11.23;10.73;;;12.00;1.00;;;;;;4867584;29;20474;-40
2023/10/04 04:38:28;;;;;;;12.30;11.60;;;12.10;1.00;;;;;;4867235;29;22287;-41
2023/10/04 04:40:57;;;;;;;12.23;11.60;;;12.10;1.00;;;;;;4868174;29;20610;-40
2023/10/04 04:43:28;;;;;;;12.83;11.90;;;12.20;1.00;;;;;;4869020;29;20873;-42
2023/10/04 04:45:56;;;;;;;12.33;11.63;;;12.20;1.00;;;;;;4868821;29;20799;-41
2023/10/04 04:48:26;;;;;;;12.00;11.30;;;12.10;1.00;;;;;;4868697;29;20551;-39
2023/10/04 04:50:54;;;;;;;13.17;12.20;;;12.20;1.00;;;;;;4868664;29;20451;-42
2023/10/04 04:53:24;;;;;;;12.77;11.97;;;12.30;1.00;;;;;;4868666;29;20417;-41
2023/10/04 04:55:50;;;;;;;13.03;12.33;;;12.30;1.00;;;;;;4868285;29;20424;-40
2023/10/04 04:58:22;;;;;;;12.73;12.13;;;12.30;1.00;;;;;;4868673;29;20435;-41
2023/10/04 05:00:55;;;;;;;12.17;11.47;;;12.40;1.00;;;;;;4867361;29;20443;-41
2023/10/04 05:03:21;;;;;;;13.10;12.20;;;12.40;1.00;;;;;;4867775;29;20535;-40
2023/10/04 05:05:49;;;;;;;12.40;11.80;;;12.50;1.00;;;;;;4866593;29;20484;-41
2023/10/04 05:08:18;;;;;;;13.20;12.20;;;12.50;1.00;;;;;;4867862;29;20555;-42
2023/10/04 05:10:45;;;;;;;12.83;12.20;;;12.50;1.00;;;;;;4867030;29;20421;-40
2023/10/04 05:13:14;;;;;;;12.93;11.97;;;12.50;1.00;;;;;;4868586;29;20978;-42
2023/10/04 05:15:43;;;;;;;12.40;11.70;;;12.50;1.00;;;;;;4868468;29;20417;-42
2023/10/04 05:18:18;;;;;;;12.30;11.60;;;12.50;1.00;;;;;;4867930;29;20578;-41
2023/10/04 05:20:45;;;;;;;12.63;11.93;;;12.50;1.00;;;;;;4867794;29;20423;-41
2023/10/04 05:23:11;;;;;;;11.20;10.60;;;12.50;1.00;;;;;;4868279;29;20425;-40
2023/10/04 05:25:40;;;;;;;11.83;11.23;;;12.50;1.00;;;;;;4868075;29;20915;-41
2023/10/04 05:28:09;;;;;;;12.30;11.67;;;12.60;1.00;;;;;;4867456;29;20986;-40
2023/10/04 05:30:37;;;;;;;11.20;10.60;;;12.60;1.00;;;;;;4867754;29;20486;-44
2023/10/04 05:33:03;;;;;;;11.97;11.20;;;12.60;1.00;;;;;;4867493;29;20424;-39
2023/10/04 05:35:29;;;;;;;12.00;11.30;;;12.60;1.00;;;;;;4867118;29;20440;-42
2023/10/04 05:37:55;;;;;;;11.87;11.17;;;12.60;1.00;;;;;;4867296;29;20470;-40
2023/10/04 05:40:27;;;;;;;11.97;11.27;;;12.50;1.00;;;;;;4866835;29;20244;-41
2023/10/04 05:42:53;;;;;;;12.20;11.60;;;12.50;1.00;;;;;;4866673;29;20949;-41
2023/10/04 05:45:23;;;;;;;11.47;10.87;;;12.50;1.00;;;;;;4867546;29;20451;-41
2023/10/04 05:47:53;;;;;;;11.27;10.57;;;12.50;1.00;;;;;;4867728;29;20446;-42
2023/10/04 05:50:22;;;;;;;12.53;11.73;;;12.60;1.00;;;;;;4867727;29;20568;-41
2023/10/04 05:52:48;;;;;;;12.17;11.27;;;12.60;1.00;;;;;;4867308;29;20899;-41
2023/10/04 05:55:16;;;;;;;12.80;12.10;;;12.60;1.00;;;;;;4867620;29;20425;-41
2023/10/04 05:57:52;;;;;;;12.97;12.33;;;12.70;1.00;;;;;;4867330;29;20416;-43
2023/10/04 06:02:55;;;;;;;12.50;11.80;;;12.70;1.00;;;;;;4867516;29;21333;-41
2023/10/04 06:05:22;;;;;;;12.53;11.93;;;12.80;1.00;;;;;;4867495;29;20421;-42
2023/10/04 06:07:51;;;;;;;12.93;12.20;;;12.80;1.00;;;;;;4866133;29;20476;-42
2023/10/04 06:10:18;;;;;;;13.07;12.07;;;12.80;1.00;;;;;;4867364;29;20427;-42
2023/10/04 06:12:47;;;;;;;12.80;12.07;;;12.80;1.00;;;;;;4867528;29;20839;-42
2023/10/04 06:15:16;;;;;;;11.90;11.27;;;12.90;1.00;;;;;;4867690;29;20622;-41
2023/10/04 06:17:48;;;;;;;12.63;11.83;;;13.00;1.00;;;;;;4866833;29;20444;-42
2023/10/04 06:20:25;;;;;;;11.90;11.20;;;13.00;1.00;;;;;;4866625;29;20527;-47
2023/10/04 06:22:53;;;;;;;12.50;11.60;;;13.10;1.00;;;;;;4866528;29;20416;-41
2023/10/04 06:25:21;;;;;;;12.20;11.60;;;13.10;1.00;;;;;;4866621;29;20452;-43
2023/10/04 06:27:54;;;;;;;12.60;12.00;;;13.10;1.00;;;;;;4861505;29;20448;-44
2023/10/04 06:30:26;;;;;;;12.10;11.50;;;13.20;1.00;;;;;;4867131;29;20436;-41
2023/10/04 06:32:53;;;;;;;12.27;11.57;;;13.30;1.00;;;;;;4865090;29;20451;-40
2023/10/04 06:35:25;;;;;;;12.37;11.70;;;13.20;1.00;;;;;;4866956;29;20424;-41
2023/10/04 06:38:03;;;;;;;12.50;11.63;;;13.30;1.00;;;;;;4865514;29;20445;-42
2023/10/04 06:40:32;;;;;;;12.63;11.93;;;13.30;1.00;;;;;;4866778;29;21050;-41
2023/10/04 06:43:00;;;;;;;12.60;11.87;;;13.40;1.00;;;;;;4866381;29;20448;-40
2023/10/04 06:45:26;;;;;;;11.80;11.23;;;13.50;1.00;;;;;;4865647;29;20436;-41
2023/10/04 06:47:54;;;;;;;12.90;12.20;;;13.50;1.00;;;;;;4865874;29;20541;-43
2023/10/04 06:50:22;;;;;;;11.77;11.07;;;13.50;1.00;;;;;;4865947;29;20597;-44
2023/10/04 06:52:52;;;;;;;12.97;12.13;;;13.60;1.00;;;;;;4866173;29;20416;-41
2023/10/04 06:55:20;;;;;;;12.33;11.73;;;13.70;1.00;;;;;;4866481;29;20520;-42
2023/10/04 06:57:47;;;;;;;12.80;11.90;;;13.80;1.00;;;;;;4864738;29;20444;-40
2023/10/04 07:00:15;;;;;;;13.27;12.50;;;13.90;1.00;;;;;;4865020;29;20503;-41
2023/10/04 07:02:47;;;;;;;13.20;12.20;;;14.00;1.00;;;;;;4866114;29;20440;-40
2023/10/04 07:05:24;;;;;;;11.83;11.23;;;14.10;1.00;;;;;;4866272;29;20421;-40
2023/10/04 07:07:54;;;;;;;12.67;11.97;;;14.10;1.00;;;;;;4865978;29;20446;-40
2023/10/04 07:10:21;;;;;;;12.43;11.73;;;14.10;1.00;;;;;;4866880;29;21548;-42
2023/10/04 07:12:48;;;;;;;13.07;12.37;;;14.10;1.00;;;;;;4866779;29;20947;-41
2023/10/04 07:15:14;;;;;;;12.73;11.93;;;14.20;1.00;;;;;;4865949;29;20439;-41
2023/10/04 07:17:41;;;;;;;11.90;11.20;;;14.20;1.00;;;;;;4866262;29;20507;-41
2023/10/04 07:20:14;;;;;;;12.50;11.80;;;14.30;1.00;;;;;;4865304;29;20432;-41
2023/10/04 07:22:45;;;;;;;12.23;11.63;;;14.30;1.00;;;;;;4866051;29;20994;-40
2023/10/04 07:25:15;;;;;;;12.03;11.33;;;14.30;1.00;;;;;;4866625;29;20500;-40
2023/10/04 07:27:45;;;;;;;12.77;12.07;;;14.30;1.00;;;;;;4863494;29;20444;-40
2023/10/04 07:30:13;;;;;;;13.40;12.50;;;14.40;1.00;;;;;;4866187;29;20452;-44
2023/10/04 07:32:46;;;;;;;12.70;11.90;;;14.40;1.00;;;;;;4864756;29;20420;-40
2023/10/04 07:35:25;;;;;;;13.00;12.20;;;14.50;1.00;;;;;;4864984;29;20437;-41
2023/10/04 07:37:54;;;;;;;13.00;12.30;;;14.60;1.00;;;;;;4864980;29;20531;-40
2023/10/04 07:40:24;;;;;;;13.30;12.40;;;14.70;1.00;;;;;;4865129;29;20483;-40
2023/10/04 07:42:53;;;;;;;12.80;12.10;;;14.70;1.00;;;;;;4866654;29;20450;-40
2023/10/04 07:45:23;;;;;;;13.30;12.60;;;14.70;1.00;;;;;;4869504;29;20424;-44
2023/10/04 07:47:50;;;;;;;13.60;12.60;;;14.80;1.00;;;;;;4869789;29;20416;-41
2023/10/04 07:50:22;;;;;;;12.57;11.87;;;14.70;99.90;;;;;;4869302;29;20442;-40
2023/10/04 07:52:54;;;;;;;13.20;12.30;;;14.70;99.90;;;;;;4867706;29;21483;-42
2023/10/04 07:55:20;;;;;;;12.83;12.03;;;14.80;1.00;;;;;;4868216;29;20439;-41
2023/10/04 07:57:46;;;;;;;12.40;11.70;;;14.90;1.00;;;;;;4866143;29;20444;-42
2023/10/04 08:00:14;;;;;;;11.97;11.27;;;15.00;99.90;;;;;;4866814;29;20223;-41
2023/10/04 08:02:49;;;;;;;12.80;12.10;;;15.10;99.90;;;;;;4865322;29;20428;-43
2023/10/04 08:05:20;;;;;;;12.37;11.67;;;15.20;99.90;;;;;;4868341;29;20431;-43
2023/10/04 08:07:54;;;;;;;13.40;12.70;;;15.30;99.90;;;;;;4866361;29;20857;-42
2023/10/04 08:10:25;;;;;;;12.40;11.80;;;15.40;99.90;;;;;;4867881;29;20954;-42
2023/10/04 08:12:55;;;;;;;13.00;12.30;;;15.60;1.00;;;;;;4866950;29;20460;-40
2023/10/04 08:15:25;;;;;;;12.13;11.53;;;15.70;1.00;;;;;;4868247;29;21216;-44
2023/10/04 08:17:52;;;;;;;12.80;12.10;;;15.90;99.90;;;;;;4867892;29;20535;-40
2023/10/04 08:20:21;;;;;;;13.17;12.17;;;16.10;1.00;;;;;;4868046;29;21506;-40
2023/10/04 08:22:47;;;;;;;12.50;11.90;;;16.20;1.00;;;;;;4868332;29;20703;-42
2023/10/04 08:25:16;;;;;;;12.60;12.00;;;16.30;99.90;;;;;;4867856;29;20436;-43
2023/10/04 08:27:43;;;;;;;12.97;12.10;;;16.40;99.90;;;;;;4867868;29;20546;-40
2023/10/04 08:30:14;;;;;;;12.70;12.03;;;16.30;99.90;;;;;;4867156;29;20504;-41
2023/10/04 08:32:41;;;;;;;13.00;12.30;;;16.30;1.00;;;;;;4868322;29;20421;-40
2023/10/04 08:35:21;;;;;;;12.60;11.90;;;16.40;1.00;;;;;;4868302;29;20427;-40
2023/10/04 08:37:53;;;;;;;12.17;11.47;;;16.40;99.90;;;;;;4866881;29;20989;-41
2023/10/04 08:40:19;;;;;;;12.37;11.70;;;16.20;75.80;;;;;;4868236;29;20492;-43
2023/10/04 08:42:47;;;;;;;13.13;12.33;;;16.30;99.90;;;;;;4868147;29;20431;-41
2023/10/04 08:45:13;;;;;;;12.40;11.80;;;16.40;1.00;;;;;;4868091;29;20428;-41
2023/10/04 08:47:39;;;;;;;12.70;12.10;;;16.40;99.90;;;;;;4867607;29;20478;-40
2023/10/04 08:50:11;;;;;;;12.60;12.00;;;16.40;2.80;;;;;;4866871;29;20215;-42
2023/10/04 08:52:42;;;;;;;12.33;11.63;;;16.40;99.90;;;;;;4866721;29;20528;-41
2023/10/04 08:55:13;;;;;;;13.10;12.40;;;16.50;1.00;;;;;;4867299;29;20438;-47
2023/10/04 08:57:40;;;;;;;12.70;12.10;;;16.80;99.90;;;;;;4867526;29;20655;-40
2023/10/04 09:00:13;;;;;;;13.07;12.30;;;17.20;1.00;;;;;;4868979;29;20563;-41
2023/10/04 09:02:44;;;;;;;13.20;12.33;;;17.40;1.00;;;;;;4868481;29;20420;-42
2023/10/04 09:05:13;;;;;;;13.10;12.30;;;17.70;99.90;;;;;;4866412;29;20432;-45
2023/10/04 09:07:39;;;;;;;13.10;12.40;;;18.00;1.00;;;;;;4863346;29;20444;-43
2023/10/04 09:10:06;;;;;;;12.50;11.73;;;18.30;99.90;;;;;;4866438;29;20566;-41
2023/10/04 09:12:32;;;;;;;12.17;11.37;;;18.60;1.00;;;;;;4865366;29;20428;-41
2023/10/04 09:14:58;;;;;;;12.10;11.50;;;18.60;99.90;;;;;;4866581;29;20477;-41
2023/10/04 09:17:25;;;;;;;12.70;12.10;;;18.40;99.90;;;;;;4866892;29;20673;-41
2023/10/04 09:19:52;;;;;;;13.13;12.43;;;18.10;99.90;;;;;;4866992;29;20801;-40
2023/10/04 09:22:29;;;;;;;13.20;12.50;;;17.90;99.90;;;;;;4866451;29;21956;-41
2023/10/04 09:24:56;;;;;;;12.20;11.70;;;17.70;99.90;;;;;;4866403;29;20443;-41
2023/10/04 09:27:23;;;;;;;12.77;12.07;;;17.70;99.90;;;;;;4866866;29;20455;-40
2023/10/04 09:29:49;;;;;;;12.00;11.30;;;17.60;99.90;;;;;;4867332;29;20514;-43
2023/10/04 09:32:38;;;;;;;11.73;11.03;;;18.00;99.90;;;;;;4867423;29;21494;-40
2023/10/04 09:35:04;;;;;;;11.83;11.13;;;18.50;99.90;;;;;;4865138;29;20870;-39
2023/10/04 09:37:30;;;;;;;12.60;11.90;;;19.10;1.00;;;;;;4867348;29;20436;-42
2023/10/04 09:40:16;;;;;;;12.57;11.87;;;19.00;1.00;;;;;;4865701;29;20465;-42
2023/10/04 09:42:46;;;;;;;12.00;11.40;;;18.80;1.00;;;;;;4865818;29;20247;-42
2023/10/04 09:45:12;;;;;;;13.17;12.47;;;18.80;1.00;;;;;;4865308;29;20833;-40
2023/10/04 09:47:38;;;;;;;12.00;11.40;;;19.00;1.00;;;;;;4866663;29;20488;-41
2023/10/04 09:50:12;;;;;;;11.23;10.73;;;18.70;1.00;;;;;;4866188;29;20553;-40
2023/10/04 09:52:38;;;;;;;12.70;12.00;;;18.60;1.00;;;;;;4866256;29;20435;-40
2023/10/04 09:55:08;;;;;;;12.60;11.80;;;18.40;1.00;;;;;;4867359;29;20423;-40
2023/10/04 09:57:36;;;;;;;11.90;11.20;;;18.40;1.00;;;;;;4867525;29;20445;-40
2023/10/04 10:00:05;;;;;;;11.63;11.03;;;18.40;1.00;;;;;;4867424;29;20444;-40
2023/10/04 10:02:36;;;;;;;11.53;11.03;;;18.30;1.00;;;;;;4867505;29;20489;-41
2023/10/04 10:05:06;;;;;;;12.83;12.13;;;18.20;1.00;;;;;;4866419;29;20905;-40
2023/10/04 10:07:34;;;;;;;11.70;11.10;;;18.10;1.00;;;;;;4866194;29;20887;-40
2023/10/04 10:10:12;;;;;;;11.00;10.50;;;17.90;1.00;;;;;;4867359;29;20519;-41
2023/10/04 10:12:39;;;;;;;11.57;11.07;;;17.90;1.00;;;;;;4867219;29;20786;-46
2023/10/04 10:15:06;;;;;;;11.30;10.80;;;17.90;1.00;;;;;;4867607;29;20424;-42
2023/10/04 10:17:34;;;;;;;11.40;10.80;;;18.00;99.90;;;;;;4864532;29;20463;-40
2023/10/04 10:20:01;;;;;;;11.70;11.20;;;18.00;1.00;;;;;;4867091;29;20456;-41
2023/10/04 10:22:26;;;;;;;11.97;11.10;;;17.90;1.00;;;;;;4867113;29;20479;-41
2023/10/04 10:24:55;;;;;;;12.60;11.80;;;17.90;1.00;;;;;;4865237;29;20519;-40
2023/10/04 10:27:23;;;;;;;12.33;11.63;;;18.10;99.90;;;;;;4867117;29;21083;-43
2023/10/04 10:29:50;;;;;;;11.40;10.80;;;18.40;1.00;;;;;;4867072;29;20988;-47
2023/10/04 10:32:20;;;;;;;11.70;11.10;;;18.70;1.00;;;;;;4866270;29;21092;-49
2023/10/04 10:34:49;;;;;;;11.33;10.73;;;19.00;1.00;;;;;;4867057;29;20436;-48
2023/10/04 10:37:22;;;;;;;11.80;11.07;;;19.20;1.00;;;;;;4866981;29;20887;-46
2023/10/04 10:39:53;;;;;;;12.10;11.30;;;19.20;1.00;;;;;;4866711;29;20455;-47
2023/10/04 10:42:20;;;;;;;12.00;11.30;;;19.50;1.00;;;;;;4867391;29;20463;-50
2023/10/04 10:44:47;;;;;;;12.00;11.33;;;19.50;1.00;;;;;;4865792;29;20440;-44
2023/10/04 10:47:25;;;;;;;12.00;11.40;;;19.60;1.00;;;;;;4866986;29;21143;-50
2023/10/04 10:50:12;;;;;;;11.53;10.93;;;19.80;1.00;;;;;;4867203;29;20480;-50
2023/10/04 10:52:39;;;;;;;11.73;11.23;;;19.70;1.00;;;;;;4866444;29;20436;-50
2023/10/04 10:55:07;;;;;;;12.43;11.77;;;19.30;1.00;;;;;;4866328;29;20431;-49
2023/10/04 10:57:36;;;;;;;11.67;11.10;;;19.10;1.00;;;;;;4866073;29;20799;-43
2023/10/04 11:02:43;;;;;;;12.17;11.53;;;18.30;1.00;;;;;;4866652;29;20443;-44
2023/10/04 11:05:12;;;;;;;12.13;11.53;;;18.30;1.00;;;;;;4866891;29;20987;-48
2023/10/04 11:07:38;;;;;;;12.43;11.83;;;18.40;1.00;;;;;;4866781;29;20601;-49
2023/10/04 11:10:06;;;;;;;12.20;11.60;;;18.60;1.00;;;;;;4865657;29;21411;-47
2023/10/04 11:12:37;;;;;;;13.17;12.43;;;18.70;1.00;;;;;;4867789;29;20469;-44
2023/10/04 11:15:06;;;;;;;11.80;11.20;;;18.60;1.00;;;;;;4866892;29;20507;-49
2023/10/04 11:17:33;;;;;;;12.40;11.70;;;18.50;1.00;;;;;;4865264;29;20424;-45
2023/10/04 11:19:58;;;;;;;12.37;11.70;;;18.30;1.00;;;;;;4869650;29;20463;-47
2023/10/04 11:22:25;;;;;;;12.43;11.77;;;18.50;1.00;;;;;;4870362;29;20523;-48
2023/10/04 11:24:51;;;;;;;12.17;11.57;;;18.90;1.00;;;;;;4869922;29;20206;-45
2023/10/04 11:27:21;;;;;;;12.20;11.50;;;19.10;1.00;;;;;;4870184;29;20476;-48
2023/10/04 11:29:49;;;;;;;11.60;11.00;;;19.10;1.00;;;;;;4870060;29;20471;-46
2023/10/04 11:32:15;;;;;;;11.60;10.97;;;18.90;1.00;;;;;;4869944;29;20424;-45
2023/10/04 11:34:44;;;;;;;12.90;12.20;;;18.80;1.00;;;;;;4870201;29;20822;-51
2023/10/04 11:37:10;;;;;;;12.43;11.63;;;18.60;1.00;;;;;;4870555;29;20420;-47
2023/10/04 11:39:37;;;;;;;12.83;12.13;;;18.60;1.00;;;;;;4869621;29;20446;-44
2023/10/04 11:42:05;;;;;;;13.10;12.20;;;18.30;1.00;;;;;;4869894;29;20286;-47
2023/10/04 11:44:40;;;;;;;11.70;11.00;;;18.00;1.00;;;;;;4870260;29;20479;-45
2023/10/04 11:47:08;;;;;;;12.90;12.20;;;17.80;1.00;;;;;;4869899;29;20431;-46
2023/10/04 11:49:35;;;;;;;11.53;10.97;;;17.70;1.00;;;;;;4867828;29;20468;-44
2023/10/04 11:52:04;;;;;;;13.00;12.30;;;17.70;1.00;;;;;;4869371;29;20467;-47
2023/10/04 11:54:40;;;;;;;12.17;11.57;;;17.80;1.00;;;;;;4868832;29;20455;-44
2023/10/04 11:57:06;;;;;;;12.10;11.40;;;18.10;1.00;;;;;;4869985;29;20859;-49
2023/10/04 11:59:33;;;;;;;12.23;11.63;;;18.20;1.00;;;;;;4869675;29;20575;-45
2023/10/04 12:02:00;;;;;;;12.23;11.63;;;18.40;1.00;;;;;;4869701;29;20420;-45
2023/10/04 12:04:27;;;;;;;12.80;12.10;;;18.40;1.00;;;;;;4868806;29;20448;-50
2023/10/04 12:07:00;;;;;;;12.87;12.07;;;18.40;1.00;;;;;;4869203;29;20471;-47
2023/10/04 12:09:27;;;;;;;11.73;11.13;;;18.50;1.00;;;;;;4869325;29;20483;-45
2023/10/04 12:11:54;;;;;;;13.07;12.17;;;18.60;1.00;;;;;;4869352;29;20432;-47
2023/10/04 12:14:21;;;;;;;12.40;11.80;;;18.60;1.00;;;;;;4869562;29;20424;-44
2023/10/04 12:16:47;;;;;;;12.33;11.60;;;18.60;1.00;;;;;;4869445;29;20464;-43
2023/10/04 12:19:14;;;;;;;11.50;10.90;;;18.60;1.00;;;;;;4868066;29;20444;-45
2023/10/04 12:21:40;;;;;;;12.70;11.90;;;18.90;1.00;;;;;;4867587;29;20417;-43
2023/10/04 12:24:07;;;;;;;12.87;12.10;;;18.80;1.00;;;;;;4867011;29;20444;-41
2023/10/04 12:26:33;;;;;;;12.10;11.30;;;19.00;1.00;;;;;;4867133;29;20718;-41
2023/10/04 12:28:59;;;;;;;13.40;12.60;;;19.50;99.90;;;;;;4868631;29;20472;-43
2023/10/04 12:31:25;;;;;;;11.87;10.87;;;19.80;99.90;;;;;;4865833;29;20435;-41
2023/10/04 12:33:52;;;;;;;12.30;11.67;;;19.70;99.90;;;;;;4868653;29;20211;-46
2023/10/04 12:36:19;;;;;;;12.70;11.70;;;19.50;99.90;;;;;;4867813;29;20183;-42
2023/10/04 12:38:46;;;;;;;12.60;11.90;;;19.10;99.90;;;;;;4868072;29;20448;-41
2023/10/04 12:41:11;;;;;;;11.57;10.97;;;19.10;99.90;;;;;;4867450;29;20483;-47
2023/10/04 12:43:37;;;;;;;13.40;12.60;;;19.30;99.90;;;;;;4867705;29;20937;-41
2023/10/04 12:46:03;;;;;;;11.90;11.30;;;19.30;99.90;;;;;;4867816;29;20283;-40